Flight Track Log - Related Links

Times and Time Zones

All times are in EDT time to prevent confusion due to time zone crossing. See the EJA922 flight status page for this flight to view local times or setup timezone preferences in your user account.

Time Position Orientation Groundspeed Altitude Reporting Facility
EDT Latitude Longitude Course Direction KTS MPH feet Rate Location/Type
Mon 12:40:03 PM 41.7667 -87.7667 217° Southwest 175 201 2,000  Level Chicago TRACON
Mon 12:41:04 PM 41.7167 -87.8167 217° Southwest 198 228 3,100 2,132 Climbing Chicago TRACON
Mon 12:42:04 PM 41.6667 -87.8500 206° Southwest 260 299 6,300 3,435 Climbing Chicago TRACON
Mon 12:43:22 PM 41.5703 -87.9186 208° Southwest 281 323 11,000 3,471 Climbing Chicago Center
Mon 12:44:24 PM 41.4972 -87.9697 208° Southwest 294 338 14,400 2,758 Climbing Chicago Center
Mon 12:45:26 PM 41.4142 -88.0267 207° Southwest 319 367 16,700 1,935 Climbing Chicago Center
Mon 12:46:28 PM 41.3144 -88.0856 204° Southwest 365 420 18,400 1,500 Climbing Chicago Center
Mon 12:47:30 PM 41.2106 -88.1511 205° Southwest 407 468 19,800 1,403 Climbing Chicago Center
Mon 12:48:32 PM 41.1014 -88.2197 205° Southwest 431 496 21,300 1,452 Climbing Chicago Center
Mon 12:49:34 PM 40.9892 -88.2894 205° Southwest 443 510 22,800 1,452 Climbing Chicago Center
Mon 12:50:36 PM 40.8753 -88.3578 204° Southwest 449 517 24,300 1,597 Climbing Chicago Center
Mon 12:51:38 PM 40.7333 -88.4458 205° Southwest 465 535 26,100 1,597 Climbing Chicago Center
Mon 12:52:40 PM 40.6128 -88.5194 205° Southwest 474 545 27,600 1,452 Climbing Chicago Center
Mon 12:53:42 PM 40.4914 -88.5928 205° Southwest 481 554 29,100 1,392 Climbing Chicago Center
Mon 12:54:45 PM 40.3642 -88.6714 205° Southwest 490 564 30,500 1,296 Climbing Chicago Center
Mon 12:55:47 PM 40.2369 -88.7478 205° Southwest 499 574 31,800 1,161 Climbing Chicago Center
Mon 12:56:49 PM 40.1067 -88.8250 204° Southwest 509 586 32,900 1,935 Climbing Chicago Center
Mon 12:57:51 PM 39.9783 -88.9014 205° Southwest 506 582 35,800 2,129 Climbing Chicago Center
Mon 12:58:53 PM 39.8544 -88.9758 205° Southwest 492 566 37,300 1,306 Climbing Chicago Center
Mon 12:59:55 PM 39.6997 -89.0678 205° Southwest 506 582 38,500 881 Climbing Chicago Center
Mon 01:00:42 PM 39.6197 -89.1172 205° Southwest 510 587 38,900 757 Climbing Kansas City Center
Mon 01:01:46 PM 39.4581 -89.2119 204° Southwest 525 604 39,900 532 Climbing Kansas City Center
Mon 01:02:46 PM 39.3414 -89.2817 205° Southwest 526 605 40,000 50 Climbing Kansas City Center
Mon 01:03:47 PM 39.2061 -89.3594 204° Southwest 529 609 40,000  Level Kansas City Center
Mon 01:04:51 PM 39.0428 -89.4550 204° Southwest 531 611 40,000  Level Kansas City Center
Mon 01:05:52 PM 38.9081 -89.5322 204° Southwest 531 611 40,000  Level Kansas City Center
Mon 01:06:54 PM 38.7633 -89.6158 204° Southwest 529 609 40,000  Level Kansas City Center
Mon 01:07:57 PM 38.6369 -89.6886 204° Southwest 536 617 40,000  Level Kansas City Center
Mon 01:08:58 PM 38.4997 -89.7661 204° Southwest 535 616 40,000 435 Level Kansas City Center
Mon 01:10:01 PM 38.3642 -89.8439 204° Southwest 532 612 40,900 1,113 Climbing Kansas City Center
Mon 01:11:02 PM 38.2350 -89.9164 204° Southwest 515 593 42,300 1,008 Climbing Kansas City Center
Mon 01:12:06 PM 38.0828 -90.0028 204° Southwest 490 564 43,000 339 Climbing Kansas City Center
Mon 01:13:06 PM 37.9617 -90.0717 204° Southwest 489 563 43,000  Level Kansas City Center
Mon 01:14:10 PM 37.8364 -90.1428 204° Southwest 492 566 43,000  Level Kansas City Center
Mon 01:15:10 PM 37.7103 -90.2133 204° Southwest 493 567 43,000  Level Kansas City Center
Mon 01:16:11 PM 37.5822 -90.2792 202° Southwest 496 571 43,000  Level Kansas City Center
Mon 01:17:15 PM 37.4525 -90.3381 200° South 497 572 43,000  Level Kansas City Center
Mon 01:18:17 PM 37.3133 -90.4036 201° Southwest 497 572 43,000  Level Kansas City Center
Mon 01:19:20 PM 37.1825 -90.4636 200° South 500 575 43,000  Level Kansas City Center
Mon 01:20:21 PM 37.0272 -90.5364 201° Southwest 499 574 43,000  Level Kansas City Center
Mon 01:21:22 PM 36.8983 -90.5947 200° South 496 571 43,000  Level Kansas City Center
Mon 01:22:26 PM 36.7669 -90.6547 200° South 499 574 43,000  Level Kansas City Center
Mon 01:23:30 PM 36.6061 -90.7344 202° Southwest 511 588 43,000  Level Memphis Center
Mon 01:24:30 PM 36.4706 -90.7956 200° South 511 588 43,000  Level Memphis Center
Mon 01:25:30 PM 36.3369 -90.8542 199° South 511 588 43,000  Level Memphis Center
Mon 01:26:30 PM 36.2011 -90.9178 201° Southwest 511 588 43,000  Level Memphis Center
Mon 01:27:30 PM 36.0717 -90.9886 204° Southwest 511 588 43,000  Level Memphis Center
Mon 01:28:30 PM 35.9564 -91.0903 216° Southwest 506 582 43,000  Level Memphis Center
Mon 01:29:30 PM 35.8369 -91.1892 214° Southwest 512 589 43,000  Level Memphis Center
Mon 01:30:30 PM 35.7236 -91.2903 216° Southwest 518 596 43,000  Level Memphis Center
Mon 01:31:30 PM 35.6081 -91.3939 216° Southwest 518 596 43,000  Level Memphis Center
Mon 01:32:30 PM 35.5072 -91.4792 215° Southwest 510 587 43,000  Level Memphis Center
Mon 01:33:30 PM 35.3894 -91.5819 215° Southwest 515 593 43,000  Level Memphis Center
Mon 01:34:30 PM 35.2694 -91.6794 214° Southwest 520 598 43,000  Level Memphis Center
Mon 01:35:30 PM 35.1411 -91.7892 215° Southwest 525 604 43,000  Level Memphis Center
Mon 01:36:30 PM 35.0253 -91.8886 215° Southwest 525 604 43,000  Level Memphis Center
Mon 01:37:30 PM 34.9069 -91.9878 215° Southwest 525 604 43,000  Level Memphis Center
Mon 01:38:30 PM 34.7911 -92.0867 215° Southwest 525 604 43,000  Level Memphis Center
Mon 01:39:30 PM 34.6644 -92.1803 211° Southwest 525 604 43,000  Level Memphis Center
Mon 01:40:30 PM 34.5222 -92.2125 191° South 504 580 43,000 -50 Level Memphis Center
Mon 01:41:30 PM 34.3778 -92.2394 189° South 519 597 42,900 -550 Descending Memphis Center
Mon 01:42:30 PM 34.2311 -92.2664 189° South 530 610 41,900 -1,000 Descending Memphis Center
Mon 01:43:30 PM 34.0931 -92.2886 188° South 525 604 40,900 -950 Descending Memphis Center
Mon 01:44:30 PM 33.9717 -92.3158 191° South 505 581 40,000 -278 Descending Memphis Center
Mon 01:46:44 PM 33.6486 -92.3733 188° South 513 590 40,000  Level Fort Worth Center
Mon 01:47:44 PM 33.5017 -92.4017 189° South 532 612 40,000  Level Fort Worth Center
Mon 01:48:44 PM 33.3564 -92.4250 188° South 532 612 40,000  Level Fort Worth Center
Mon 01:49:44 PM 33.2094 -92.4531 189° South 538 619 40,000  Level Fort Worth Center
Mon 01:50:44 PM 33.0622 -92.4786 188° South 543 625 40,000  Level Fort Worth Center
Mon 01:51:44 PM 32.9211 -92.5036 188° South 531 611 40,000  Level Fort Worth Center
Mon 01:53:31 PM 32.6625 -92.5550 189° South 533 613 40,000  Level Houston Center
Mon 01:54:33 PM 32.5072 -92.5825 188° South 536 617 40,000  Level Houston Center
Mon 01:55:35 PM 32.3594 -92.6094 189° South 539 620 40,000  Level Houston Center
Mon 01:56:37 PM 32.1817 -92.6411 189° South 538 619 40,000  Level Houston Center
Mon 01:57:39 PM 32.0442 -92.6992 200° South 537 618 40,000  Level Houston Center
Mon 01:58:41 PM 31.9406 -92.8192 225° Southwest 524 603 40,000  Level Houston Center
Mon 01:59:43 PM 31.8411 -92.9381 225° Southwest 514 592 40,000  Level Houston Center
Mon 02:00:45 PM 31.7419 -93.0575 226° Southwest 514 592 40,000  Level Houston Center
Mon 02:01:47 PM 31.6417 -93.1758 225° Southwest 512 589 40,000  Level Houston Center
Mon 02:02:49 PM 31.5314 -93.3094 226° Southwest 512 589 40,000  Level Houston Center
Mon 02:03:51 PM 31.4300 -93.4267 225° Southwest 515 593 40,000 -48 Level Houston Center
Mon 02:04:53 PM 31.3306 -93.5444 225° Southwest 513 590 39,900 -1,258 Descending Houston Center
Mon 02:05:55 PM 31.2219 -93.6714 225° Southwest 511 588 37,400 -2,419 Descending Houston Center
Mon 02:06:57 PM 31.1206 -93.7897 225° Southwest 517 595 34,900 -2,758 Descending Houston Center
Mon 02:07:59 PM 31.0061 -93.9244 225° Southwest 519 597 31,700 -3,145 Descending Houston Center
Mon 02:09:01 PM 30.8936 -94.0558 225° Southwest 533 613 28,400 -3,000 Descending Houston Center
Mon 02:10:03 PM 30.7914 -94.1744 225° Southwest 525 604 25,500 -2,806 Descending Houston Center
Mon 02:11:05 PM 30.6925 -94.2889 225° Southwest 512 589 22,600 -2,916 Descending Houston Center
Mon 02:11:50 PM 30.6119 -94.3828 225° Southwest 484 557 20,300 -2,613 Descending Houston Center
Mon 02:12:07 PM 30.5978 -94.3981 223° Southwest 495 570 19,900 -2,345 Descending Houston Center
Mon 02:13:17 PM 30.4819 -94.5358 226° Southwest 459 528 16,900 -2,419 Descending Houston Center
Mon 02:14:11 PM 30.4158 -94.6403 234° Southwest 449 517 14,900 -2,262 Descending Houston Center
Mon 02:14:18 PM 30.4092 -94.6519 236° Southwest 436 502 14,600 -1,935 Descending Houston Center
Mon 02:15:13 PM 30.3453 -94.7497 233° Southwest 432 497 12,900 -1,967 Descending Houston Center
Mon 02:15:19 PM 30.3339 -94.7658 231° Southwest 413 475 12,600 -2,060 Descending Houston Center
Mon 02:16:20 PM 30.2625 -94.8742 233° Southwest 420 483 10,600 -1,345 Descending Houston Center
Mon 02:17:15 PM 30.2003 -94.9736 234° Southwest 414 476 10,000 -632 Descending Houston Center
Mon 02:17:17 PM 30.2081 -94.9639 47° Northeast 417 480 10,000  Level Houston Center
Mon 02:18:19 PM 30.1358 -95.0664 231° Southwest 414 476 10,000 83 Level Houston Center
Mon 02:18:29 PM 30.1017 -95.0850 205° Southwest 417 480 10,100  Climbing Houston Center
Mon 02:19:18 PM 30.0189 -95.1219 201° Southwest 416 479 10,000 -115 Descending Houston Center
Mon 02:19:21 PM 30.0278 -95.1167 27° Northeast 419 482 10,000  Level Houston Center
Mon 02:20:20 PM 29.8997 -95.1728 201° Southwest 419 482 10,000  Level Houston Center
Mon 02:20:23 PM 29.8989 -95.1725 164° South 417 480 10,000  Level Houston Center
Mon 02:21:25 PM 29.7981 -95.2147 200° South 393 452 10,000  Level Houston Center
Mon 02:21:27 PM 29.7925 -95.2172 201° Southwest 351 404 10,000 -1,474 Level Houston Center
Mon 02:22:22 PM 29.7142 -95.2339 190° South 302 348 8,600 -1,500 Descending Houston Center
Mon 02:22:27 PM 29.7153 -95.2339 360° North 317 365 8,500 -1,808 Descending Houston Center
Mon 02:23:35 PM 29.6094 -95.2369 181° South 299 344 6,400 -1,355 Descending Houston Center
Mon 02:24:31 PM 29.5442 -95.2581 196° South 279 321 5,700 -885 Descending Houston Center
Mon 02:24:36 PM 29.5367 -95.2650 219° Southwest 269 310 5,500 -1,791 Descending Houston Center
Mon 02:25:38 PM 29.4814 -95.3269 224° Southwest 275 316 3,700 -1,261 Descending Houston Center
Mon 02:26:35 PM 29.4747 -95.3892 263° West 256 295 3,000 -689 Descending Houston Center
Mon 02:26:39 PM 29.4778 -95.4017 286° West 214 246 3,000 -508 Level Houston Center
Mon 02:27:34 PM 29.5156 -95.4261 331° Northwest 185 213 2,500 -414 Descending Houston Center
Mon 02:27:37 PM 29.5100 -95.4275 192° South 217 250 2,600 -462 Climbing Houston Center
Mon 02:28:39 PM 29.5467 -95.3878 43° Northeast 195 224 2,000 -435 Descending Houston Center
Mon 02:29:41 PM 29.5794 -95.3511 44° Northeast 177 204 1,700 -375 Descending Houston Center
Mon 02:29:43 PM 29.5839 -95.3458 46° Northeast 150 173 1,600 -774 Descending Houston Center
Mon 02:30:43 PM 29.6092 -95.3189 43° Northeast 139 160 900 -689 Descending Houston Center
Mon 02:31:45 PM 29.6347 -95.2908 44° Northeast 129 148 200 -387 Descending Houston Center
Mon 02:32:47 PM 29.6603 -95.2628 44° Northeast 129 148 100 -97 Descending Houston Center

Login

Don't have an account? Register now (free) for customized features, flight alerts, and more!